Decoded Metar for YGFN ( in ) (IATA:) | Meteo·Mobile Aviation Weather
aviador You're here:

YGFN Decoded Metar

in
Report Time2018-10-20 04:00:00
UTC Time2018-10-20 04:53:55
Flight Rules vfr VFR
Wind050° at 12 kt
W.Decomp.*RWY 36: 7.7 kt HW 9.2 kt RCW
W.Rank050° ranks 15
Current wind is above 050° avg. (6.1)
Visibility9999 m
Phenomena:N/A
Clouds:N/A
Expected CloudBase > 3,600 ft AGL from Temp-Dew spread
CeilingNone
Temp26°C
Dew Point17°C (58% RH)
AAT24.1°C
QNH1013 hPa
Raw Report
METAR YGFN 200400Z AUTO 05012KT 9999 // NCD 26/17 Q1013=

Extra information for YGFN:More info

Social comments